Time;durP1;ratioP1;P1;durP2;ratioP2;P2;SDS_P1;SDS_P2;PMS_P1;PMS_P2;Temp;Humidity;BMP_temperature;BMP_pressure;BME280_temperature;BME280_humidity;BME280_pressure;Samples;Min_cycle;Max_cycle;Signal;HPM_P1;HPM_P2
2021/08/07 00:00:52;;;;;;;;;2.50;0.00;;;;;18.48;65.49;100313.75;5075370;28;45397;-68
2021/08/07 00:03:18;;;;;;;;;1.00;0.00;;;;;18.35;66.41;100299.78;5073441;27;46439;-68
2021/08/07 00:05:44;;;;;;;;;2.00;1.00;;;;;18.41;66.29;100315.22;5072965;27;45306;-69
2021/08/07 00:08:09;;;;;;;;;1.00;1.00;;;;;18.37;66.64;100316.44;5069603;28;45359;-68
2021/08/07 00:10:35;;;;;;;;;4.00;2.00;;;;;18.35;66.48;100313.06;5073214;27;45496;-69
2021/08/07 00:13:00;;;;;;;;;4.50;1.00;;;;;18.33;66.04;100311.53;5075229;27;45346;-68
2021/08/07 00:15:26;;;;;;;;;0.00;0.00;;;;;18.31;66.80;100313.44;5073260;27;45260;-69
2021/08/07 00:17:52;;;;;;;;;1.00;0.00;;;;;18.30;66.67;100312.59;5073754;27;45531;-69
2021/08/07 00:20:17;;;;;;;;;2.00;1.75;;;;;18.26;66.63;100309.34;5071507;28;45477;-68
2021/08/07 00:22:42;;;;;;;;;2.00;1.00;;;;;18.26;66.57;100316.47;5088642;27;46229;-68
2021/08/07 00:25:08;;;;;;;;;2.00;0.50;;;;;18.21;66.74;100308.03;5074315;27;45255;-68
2021/08/07 00:27:34;;;;;;;;;2.50;1.00;;;;;18.19;67.36;100308.16;5073790;28;45390;-68
2021/08/07 00:29:59;;;;;;;;;1.00;1.00;;;;;18.17;67.00;100302.13;5073119;27;45387;-68
2021/08/07 00:32:24;;;;;;;;;2.50;1.00;;;;;18.10;67.39;100295.59;5072924;27;46619;-68
2021/08/07 00:34:50;;;;;;;;;3.00;1.25;;;;;18.14;66.97;100313.00;5072701;27;45489;-68
2021/08/07 00:37:15;;;;;;;;;1.00;1.00;;;;;18.13;67.19;100300.69;5074113;27;45602;-68
2021/08/07 00:39:40;;;;;;;;;3.50;1.25;;;;;18.12;67.74;100296.34;5075027;28;45697;-68
2021/08/07 00:42:06;;;;;;;;;1.50;1.50;;;;;18.10;67.43;100295.59;5072445;27;46394;-69
2021/08/07 00:44:31;;;;;;;;;2.25;1.00;;;;;18.03;67.54;100299.75;5072893;28;45547;-68
2021/08/07 00:46:56;;;;;;;;;1.25;0.50;;;;;18.04;67.51;100300.59;5072734;28;45848;-68
2021/08/07 00:49:22;;;;;;;;;2.00;0.75;;;;;18.02;67.43;100303.38;5072686;27;45594;-68
2021/08/07 00:51:48;;;;;;;;;3.25;1.00;;;;;17.99;67.86;100304.47;5074858;27;45350;-68
2021/08/07 00:54:14;;;;;;;;;2.00;1.00;;;;;17.95;67.77;100297.69;5073069;27;45666;-68
2021/08/07 00:56:39;;;;;;;;;3.00;1.75;;;;;17.95;67.87;100299.50;5072917;27;45369;-68
2021/08/07 00:59:06;;;;;;;;;1.00;0.75;;;;;17.91;68.08;100295.44;5071265;28;45545;-69
2021/08/07 01:01:41;;;;;;;;;1.00;1.00;;;;;17.90;68.41;100293.72;5072801;27;47128;-68
2021/08/07 01:04:12;;;;;;;;;2.00;2.00;;;;;17.89;67.96;100292.03;5073533;27;45547;-69
2021/08/07 01:07:05;;;;;;;;;2.00;1.00;;;;;17.77;68.15;100280.56;5074787;28;45354;-69
2021/08/07 01:10:01;;;;;;;;;1.00;1.00;;;;;17.82;68.33;100281.06;5071917;28;45581;-68
2021/08/07 01:12:37;;;;;;;;;2.00;1.00;;;;;17.80;68.18;100279.47;5072991;27;46493;-68
2021/08/07 01:15:04;;;;;;;;;2.00;0.00;;;;;17.80;68.29;100283.00;5073782;27;45580;-68
2021/08/07 01:17:32;;;;;;;;;1.75;1.00;;;;;17.79;68.10;100275.97;5074240;27;45471;-68
2021/08/07 01:20:04;;;;;;;;;2.75;1.50;;;;;17.78;68.38;100279.59;5076179;27;45360;-69
2021/08/07 01:22:58;;;;;;;;;1.00;1.00;;;;;17.77;68.69;100272.59;5060232;28;45477;-69
2021/08/07 01:25:36;;;;;;;;;0.00;0.00;;;;;17.74;68.68;100279.00;5073884;27;45541;-68
2021/08/07 01:28:02;;;;;;;;;1.75;1.00;;;;;17.70;68.22;100268.72;5073308;28;45396;-69
2021/08/07 01:30:28;;;;;;;;;4.00;1.00;;;;;17.67;68.82;100268.97;5074171;28;45485;-68
2021/08/07 01:32:55;;;;;;;;;1.25;1.25;;;;;17.68;68.35;100281.28;5075357;27;45480;-68
2021/08/07 01:35:21;;;;;;;;;2.50;1.25;;;;;17.66;68.61;100276.09;5075622;27;45334;-68
2021/08/07 01:37:47;;;;;;;;;1.00;1.00;;;;;17.63;68.23;100286.09;5075109;27;45440;-68
2021/08/07 01:40:13;;;;;;;;;1.50;1.00;;;;;17.57;68.59;100273.31;5075064;27;45420;-68
2021/08/07 01:42:38;;;;;;;;;0.50;0.50;;;;;17.54;69.02;100270.88;5077367;28;46409;-68
2021/08/07 01:45:04;;;;;;;;;1.00;1.00;;;;;17.51;69.18;100269.34;5075543;27;45351;-68
2021/08/07 01:47:56;;;;;;;;;4.00;1.00;;;;;17.50;69.03;100274.78;5075049;27;45279;-69
2021/08/07 01:50:38;;;;;;;;;4.75;1.00;;;;;17.48;68.97;100270.41;5075666;27;45841;-68
2021/08/07 01:53:16;;;;;;;;;2.00;1.00;;;;;17.45;69.29;100261.84;5075485;27;45678;-68
2021/08/07 01:55:49;;;;;;;;;2.50;2.00;;;;;17.44;69.08;100265.50;5076142;27;45320;-68
2021/08/07 01:58:28;;;;;;;;;2.00;2.00;;;;;17.42;69.55;100254.13;5075720;27;45298;-68
2021/08/07 02:00:55;;;;;;;;;2.00;1.00;;;;;17.39;69.54;100251.72;5077348;27;45358;-68
2021/08/07 02:03:22;;;;;;;;;2.00;1.00;;;;;17.38;69.34;100253.53;5075300;28;45551;-68
2021/08/07 02:05:48;;;;;;;;;1.00;1.00;;;;;17.30;69.45;100242.66;5074679;27;45290;-68
2021/08/07 02:08:15;;;;;;;;;1.75;0.75;;;;;17.36;69.48;100262.56;5075490;27;45408;-68
2021/08/07 02:10:43;;;;;;;;;2.00;2.00;;;;;17.30;69.75;100253.28;5075679;27;45571;-68
2021/08/07 02:13:11;;;;;;;;;0.50;0.50;;;;;17.31;69.32;100252.31;5076267;27;46586;-68
2021/08/07 02:15:37;;;;;;;;;2.00;2.00;;;;;17.29;69.60;100259.56;5076631;28;45800;-69
2021/08/07 02:18:02;;;;;;;;;1.00;1.00;;;;;17.25;69.90;100244.00;5073359;27;45483;-68
2021/08/07 02:20:29;;;;;;;;;1.00;0.50;;;;;17.27;69.89;100250.00;5075058;27;45367;-68
2021/08/07 02:22:55;;;;;;;;;3.00;2.00;;;;;17.26;70.10;100251.81;5075074;27;45526;-68
2021/08/07 02:25:21;;;;;;;;;1.00;1.00;;;;;17.25;69.99;100246.66;5075656;27;45831;-68
2021/08/07 02:27:48;;;;;;;;;4.75;2.00;;;;;17.26;69.63;100243.84;5075633;27;45326;-68
2021/08/07 02:30:13;;;;;;;;;3.75;2.00;;;;;17.27;69.62;100247.34;5074497;27;45432;-68
2021/08/07 02:32:41;;;;;;;;;1.75;1.75;;;;;17.19;69.81;100224.91;5075740;27;45855;-68
2021/08/07 02:35:09;;;;;;;;;2.00;2.00;;;;;17.27;69.62;100240.22;5073939;27;45303;-68
2021/08/07 02:37:35;;;;;;;;;1.00;1.00;;;;;17.25;70.00;100230.72;5074822;27;45415;-68
2021/08/07 02:40:02;;;;;;;;;1.00;1.00;;;;;17.26;70.57;100237.72;5077340;27;45665;-68
2021/08/07 02:42:29;;;;;;;;;3.00;2.00;;;;;17.24;70.32;100231.69;5075960;28;46350;-69
2021/08/07 02:44:55;;;;;;;;;1.50;1.00;;;;;17.20;70.21;100225.75;5074321;27;45508;-69
2021/08/07 02:47:22;;;;;;;;;2.25;1.00;;;;;17.18;70.28;100225.03;5074958;27;45495;-68
2021/08/07 02:49:48;;;;;;;;;1.00;1.00;;;;;17.17;70.63;100218.88;5074709;27;45502;-68
2021/08/07 02:52:14;;;;;;;;;0.75;0.75;;;;;17.15;70.47;100223.47;5073488;28;46267;-69
2021/08/07 02:54:40;;;;;;;;;1.00;1.00;;;;;17.14;70.73;100228.91;5073741;27;45731;-69
2021/08/07 02:57:05;;;;;;;;;2.00;2.00;;;;;17.14;71.13;100224.44;5075382;27;45410;-69
2021/08/07 02:59:31;;;;;;;;;1.75;1.00;;;;;17.15;71.10;100220.81;5073801;27;45516;-68
2021/08/07 03:01:56;;;;;;;;;1.00;1.00;;;;;17.14;71.01;100215.63;5074467;28;45374;-69
2021/08/07 03:04:22;;;;;;;;;1.00;1.00;;;;;17.13;71.36;100208.63;5074851;27;45350;-69
2021/08/07 03:06:47;;;;;;;;;3.75;1.00;;;;;17.14;71.40;100212.97;5076593;27;45338;-69
2021/08/07 03:09:12;;;;;;;;;2.00;0.00;;;;;17.06;70.89;100200.28;5074507;27;48748;-68
2021/08/07 03:11:38;;;;;;;;;2.50;1.50;;;;;17.13;71.74;100206.81;5074176;28;45559;-69
2021/08/07 03:14:03;;;;;;;;;3.25;2.50;;;;;17.15;71.35;100212.00;5072539;27;45441;-69
2021/08/07 03:16:28;;;;;;;;;2.00;1.00;;;;;17.16;71.67;100216.34;5074233;27;52638;-68
2021/08/07 03:18:54;;;;;;;;;1.00;1.00;;;;;17.14;71.84;100218.28;5076264;27;45291;-68
2021/08/07 03:21:19;;;;;;;;;1.00;1.00;;;;;17.11;72.05;100214.03;5073703;27;46290;-68
2021/08/07 03:23:45;;;;;;;;;2.00;0.75;;;;;17.14;71.43;100212.97;5074122;27;45402;-68
2021/08/07 03:26:11;;;;;;;;;2.00;2.00;;;;;17.16;71.14;100203.06;5073239;27;45569;-69
2021/08/07 03:28:36;;;;;;;;;2.25;2.00;;;;;17.18;71.99;100198.50;5082270;27;45518;-69
2021/08/07 03:31:02;;;;;;;;;4.00;2.00;;;;;17.19;71.89;100202.84;5075446;27;46278;-68
2021/08/07 03:33:27;;;;;;;;;3.00;1.75;;;;;17.15;72.12;100196.06;5073219;27;45556;-69
2021/08/07 03:35:52;;;;;;;;;2.75;2.00;;;;;17.19;72.11;100197.53;5072059;28;45368;-69
2021/08/07 03:38:18;;;;;;;;;2.00;2.00;;;;;17.17;71.42;100200.31;5073565;27;45282;-68
2021/08/07 03:40:43;;;;;;;;;1.00;1.00;;;;;17.16;71.57;100195.09;5073905;28;46093;-69
2021/08/07 03:43:08;;;;;;;;;1.00;1.00;;;;;17.16;71.87;100190.63;5074531;28;45405;-69
2021/08/07 03:45:34;;;;;;;;;4.25;1.00;;;;;17.16;71.79;100182.66;5073375;28;45494;-69
2021/08/07 03:47:59;;;;;;;;;2.00;1.75;;;;;17.15;71.73;100180.13;5073282;27;45484;-68
2021/08/07 03:50:25;;;;;;;;;3.50;2.00;;;;;17.19;71.67;100179.78;5073636;27;46650;-68
2021/08/07 03:52:50;;;;;;;;;4.50;2.75;;;;;17.19;72.23;100186.91;5072623;27;45504;-69
2021/08/07 03:55:16;;;;;;;;;2.00;2.00;;;;;17.18;71.98;100182.56;5074228;27;45426;-68
2021/08/07 03:57:52;;;;;;;;;3.00;3.00;;;;;17.18;72.08;100186.06;5075015;27;45296;-68
2021/08/07 04:00:18;;;;;;;;;2.00;2.00;;;;;17.17;71.86;100172.88;5074139;28;45433;-68
2021/08/07 04:02:43;;;;;;;;;2.00;2.00;;;;;17.17;72.49;100167.56;5073500;28;45449;-68
2021/08/07 04:05:09;;;;;;;;;1.25;1.00;;;;;17.16;72.23;100163.22;5072813;28;45390;-69
2021/08/07 04:07:34;;;;;;;;;2.00;2.00;;;;;17.15;72.10;100156.25;5073488;27;45418;-69
2021/08/07 04:10:00;;;;;;;;;1.00;1.00;;;;;17.17;72.60;100165.78;5074454;27;48409;-69
2021/08/07 04:12:25;;;;;;;;;3.00;1.75;;;;;17.15;72.90;100167.69;5072796;27;45510;-68
2021/08/07 04:14:51;;;;;;;;;2.25;0.75;;;;;17.12;72.65;100164.44;5071835;27;45543;-69
2021/08/07 04:17:17;;;;;;;;;1.00;1.00;;;;;17.15;72.28;100169.50;5073088;27;45323;-70
2021/08/07 04:19:42;;;;;;;;;2.00;2.00;;;;;17.03;72.96;100141.28;5072896;28;45381;-68
2021/08/07 04:22:07;;;;;;;;;3.00;2.00;;;;;17.07;72.50;100156.00;5073247;28;67600;-69
2021/08/07 04:24:33;;;;;;;;;1.00;1.00;;;;;17.08;73.05;100163.00;5073791;28;56026;-69
2021/08/07 04:26:58;;;;;;;;;2.50;1.25;;;;;17.05;73.06;100157.94;5071957;27;45451;-69
2021/08/07 04:29:23;;;;;;;;;1.50;1.00;;;;;17.02;73.12;100164.34;5072412;28;59761;-68
2021/08/07 04:31:49;;;;;;;;;2.00;2.00;;;;;17.01;73.47;100169.75;5070429;27;45387;-69
2021/08/07 04:34:14;;;;;;;;;3.00;3.00;;;;;16.98;73.33;100157.59;5073071;27;47864;-69
2021/08/07 04:36:39;;;;;;;;;2.50;1.75;;;;;16.91;72.81;100162.53;5069184;28;45359;-68
2021/08/07 04:39:04;;;;;;;;;4.00;4.00;;;;;16.86;73.45;100166.50;5072009;27;45514;-68
2021/08/07 04:41:30;;;;;;;;;2.75;2.75;;;;;16.82;73.61;100160.59;5072151;27;46607;-69
2021/08/07 04:43:55;;;;;;;;;3.00;1.00;;;;;16.80;73.93;100165.16;5070381;28;45392;-69
2021/08/07 04:46:20;;;;;;;;;2.75;1.00;;;;;16.77;74.02;100161.91;5072582;28;56033;-68
2021/08/07 04:48:46;;;;;;;;;3.25;2.75;;;;;16.69;74.27;100152.69;5089438;27;47566;-69
2021/08/07 04:51:11;;;;;;;;;2.00;2.00;;;;;16.61;74.38;100147.16;5076085;28;45504;-69
2021/08/07 04:53:36;;;;;;;;;4.75;3.00;;;;;16.63;74.44;100155.81;5075553;27;45453;-68
2021/08/07 04:56:02;;;;;;;;;5.25;2.00;;;;;16.63;74.54;100153.19;5074042;27;45598;-68
2021/08/07 04:58:27;;;;;;;;;2.00;1.00;;;;;16.58;74.80;100147.38;5075225;27;45549;-69
2021/08/07 05:00:53;;;;;;;;;3.00;1.50;;;;;16.59;74.58;100151.72;5076169;27;65477;-69
2021/08/07 05:03:18;;;;;;;;;1.00;1.00;;;;;16.59;74.70;100149.06;5076154;27;45445;-69
2021/08/07 05:05:43;;;;;;;;;2.75;1.75;;;;;16.59;75.12;100137.59;5075445;28;45590;-69
2021/08/07 05:08:09;;;;;;;;;2.00;2.00;;;;;16.58;74.94;100135.94;5076558;28;45597;-68
2021/08/07 05:10:34;;;;;;;;;1.75;1.75;;;;;16.58;74.87;100141.22;5074763;27;45594;-69
2021/08/07 05:12:59;;;;;;;;;3.00;2.25;;;;;16.59;75.20;100146.41;5078411;27;45612;-69
2021/08/07 05:15:25;;;;;;;;;2.75;2.50;;;;;16.60;75.00;100148.13;5075850;28;45415;-69
2021/08/07 05:17:50;;;;;;;;;5.00;2.00;;;;;16.60;75.06;100147.25;5075698;27;45399;-68
2021/08/07 05:20:15;;;;;;;;;2.50;2.00;;;;;16.61;75.37;100144.50;5075183;27;54247;-68
2021/08/07 05:22:41;;;;;;;;;1.50;1.25;;;;;16.60;75.20;100139.28;5077024;28;45475;-68
2021/08/07 05:25:08;;;;;;;;;2.75;2.00;;;;;16.63;75.76;100131.09;5075546;28;49830;-69
2021/08/07 05:27:34;;;;;;;;;2.00;2.00;;;;;16.65;75.47;100129.16;5077066;28;45504;-69
2021/08/07 05:29:59;;;;;;;;;3.75;2.75;;;;;16.65;75.42;100122.09;5076333;27;45485;-68
2021/08/07 05:32:24;;;;;;;;;3.75;2.00;;;;;16.67;75.41;100127.25;5073987;27;48059;-68
2021/08/07 05:34:50;;;;;;;;;4.25;3.00;;;;;16.68;75.50;100121.81;5074345;27;45402;-69
2021/08/07 05:37:15;;;;;;;;;4.00;1.75;;;;;16.74;75.38;100125.84;5075059;27;45239;-69
2021/08/07 05:39:40;;;;;;;;;4.50;2.00;;;;;16.77;75.53;100109.69;5074373;28;45514;-69
2021/08/07 05:42:06;;;;;;;;;3.25;3.25;;;;;16.80;75.44;100108.59;5075532;27;45504;-69
2021/08/07 05:44:31;;;;;;;;;2.00;2.00;;;;;16.85;75.49;100111.72;5075300;27;45470;-69
2021/08/07 05:46:56;;;;;;;;;1.50;1.25;;;;;16.91;75.30;100111.22;5075227;27;46399;-69
2021/08/07 05:49:22;;;;;;;;;2.75;2.00;;;;;16.92;74.98;100110.28;5091167;27;58453;-69
2021/08/07 05:51:47;;;;;;;;;2.00;2.00;;;;;17.00;75.08;100121.13;5077070;28;45876;-68
2021/08/07 05:54:12;;;;;;;;;2.50;1.00;;;;;17.01;74.89;100116.66;5074840;27;45456;-69
2021/08/07 05:56:38;;;;;;;;;1.00;1.00;;;;;17.05;75.03;100110.16;5074906;27;45436;-69
2021/08/07 05:59:03;;;;;;;;;4.00;1.25;;;;;17.07;74.87;100108.19;5075307;27;45700;-69
2021/08/07 06:01:28;;;;;;;;;2.00;2.00;;;;;17.10;75.07;100103.50;5074807;27;45397;-69
2021/08/07 06:03:53;;;;;;;;;4.00;2.00;;;;;17.14;74.93;100112.06;5077512;27;45547;-69
2021/08/07 06:06:19;;;;;;;;;4.00;2.25;;;;;17.22;74.76;100112.28;5072971;28;69282;-69
2021/08/07 06:08:44;;;;;;;;;3.00;1.75;;;;;17.33;74.90;100106.09;5074056;27;45438;-69
2021/08/07 06:11:09;;;;;;;;;5.00;2.00;;;;;17.45;74.41;100108.63;5073110;27;54011;-69
2021/08/07 06:13:35;;;;;;;;;4.75;1.75;;;;;17.51;74.53;100114.41;5073442;27;45602;-69
2021/08/07 06:16:00;;;;;;;;;3.00;2.00;;;;;17.54;74.31;100109.69;5076861;27;45520;-69
2021/08/07 06:18:26;;;;;;;;;1.50;1.00;;;;;17.63;74.48;100114.22;5075181;27;45518;-68
2021/08/07 06:20:52;;;;;;;;;4.25;2.75;;;;;17.73;73.87;100120.50;5070397;28;45460;-69
2021/08/07 06:23:17;;;;;;;;;4.50;1.75;;;;;17.89;73.68;100117.41;5074914;27;45398;-68
2021/08/07 06:25:43;;;;;;;;;2.25;1.00;;;;;18.06;73.61;100117.81;5073936;28;45464;-69
2021/08/07 06:28:09;;;;;;;;;2.25;1.00;;;;;18.17;73.18;100115.13;5075150;27;45427;-69
2021/08/07 06:30:35;;;;;;;;;3.00;1.00;;;;;18.25;72.63;100117.97;5074417;27;45369;-69
2021/08/07 06:33:00;;;;;;;;;3.00;1.00;;;;;18.31;73.12;100112.13;5074619;27;45540;-69
2021/08/07 06:35:26;;;;;;;;;2.00;2.00;;;;;18.35;73.29;100108.22;5075153;27;46469;-69
2021/08/07 06:37:53;;;;;;;;;4.00;2.75;;;;;18.41;72.42;100113.03;5073531;28;50725;-69
2021/08/07 06:40:19;;;;;;;;;1.00;1.00;;;;;18.52;72.36;100110.28;5074572;28;47943;-68
2021/08/07 06:42:44;;;;;;;;;3.25;3.25;;;;;18.62;72.56;100112.16;5076376;27;45445;-69
2021/08/07 06:45:10;;;;;;;;;2.25;2.00;;;;;18.76;72.31;100106.50;5074370;27;46657;-69
2021/08/07 06:47:36;;;;;;;;;6.00;2.75;;;;;18.79;71.63;100100.91;5074547;27;45932;-68
2021/08/07 06:50:03;;;;;;;;;3.50;3.00;;;;;18.85;71.67;100099.56;5072917;27;45486;-68
2021/08/07 06:52:28;;;;;;;;;2.00;2.00;;;;;18.83;71.77;100082.84;5073821;27;45421;-68
2021/08/07 06:54:53;;;;;;;;;3.50;2.50;;;;;18.98;71.66;100097.50;5074979;27;46825;-69
2021/08/07 06:57:21;;;;;;;;;4.50;2.00;;;;;19.10;71.16;100099.06;5073843;28;50997;-69
2021/08/07 06:59:47;;;;;;;;;2.50;2.50;;;;;19.19;70.70;100092.06;5073206;28;45411;-69
2021/08/07 07:02:12;;;;;;;;;3.50;1.50;;;;;19.31;70.55;100093.63;5073148;27;45547;-69
2021/08/07 07:04:38;;;;;;;;;5.50;2.00;;;;;19.36;70.62;100091.41;5065757;27;46561;-69
2021/08/07 07:07:04;;;;;;;;;2.25;2.25;;;;;19.51;69.79;100086.50;5075130;27;45574;-69
2021/08/07 07:09:30;;;;;;;;;3.50;2.75;;;;;19.65;69.98;100093.31;5073142;28;45294;-69
2021/08/07 07:11:55;;;;;;;;;3.00;1.00;;;;;20.43;69.76;100099.38;5074710;27;45563;-69
2021/08/07 07:14:21;;;;;;;;;4.75;3.00;;;;;21.31;67.40;100090.06;5073645;28;46554;-67
2021/08/07 07:16:47;;;;;;;;;3.00;2.50;;;;;21.33;65.92;100098.75;5073529;28;45875;-67
2021/08/07 07:19:14;;;;;;;;;2.00;1.00;;;;;21.21;66.49;100095.44;5074869;27;45681;-67
2021/08/07 07:21:39;;;;;;;;;5.00;2.75;;;;;21.00;65.69;100101.03;5074655;28;45550;-68
2021/08/07 07:24:05;;;;;;;;;4.00;2.25;;;;;21.00;66.34;100092.16;5070691;27;46283;-66
2021/08/07 07:26:30;;;;;;;;;2.25;2.00;;;;;21.10;66.39;100091.13;5070705;27;45512;-67
2021/08/07 07:28:56;;;;;;;;;2.50;2.25;;;;;21.30;65.58;100083.03;5072552;27;45541;-67
2021/08/07 07:31:23;;;;;;;;;0.75;0.75;;;;;21.57;65.20;100088.31;5072599;28;45516;-68
2021/08/07 07:33:48;;;;;;;;;2.00;1.25;;;;;21.70;64.62;100089.75;5074569;27;46702;-67
2021/08/07 07:36:14;;;;;;;;;2.25;1.25;;;;;21.84;64.45;100089.22;5075274;27;45497;-68
2021/08/07 07:38:40;;;;;;;;;2.00;1.00;;;;;21.95;64.38;100085.47;5076933;27;45496;-69
2021/08/07 07:41:05;;;;;;;;;0.75;0.75;;;;;21.90;64.84;100077.91;5072015;27;45626;-68
2021/08/07 07:43:31;;;;;;;;;4.75;3.00;;;;;22.38;64.97;100071.25;5072966;28;45674;-70
2021/08/07 07:45:57;;;;;;;;;4.00;2.75;;;;;22.97;63.61;100068.72;5075556;27;45485;-68
2021/08/07 07:48:22;;;;;;;;;3.75;2.75;;;;;23.08;62.81;100055.88;5068027;27;45523;-69
2021/08/07 07:50:48;;;;;;;;;2.00;2.00;;;;;24.11;61.17;100064.34;5071193;28;48009;-69
2021/08/07 07:53:14;;;;;;;;;3.75;3.25;;;;;24.28;61.00;100062.50;5070658;27;45645;-69
2021/08/07 07:55:41;;;;;;;;;2.50;2.00;;;;;24.29;59.81;100066.03;5069117;28;45572;-70
2021/08/07 07:58:07;;;;;;;;;1.00;1.00;;;;;24.44;58.39;100067.03;5070839;28;45633;-70
2021/08/07 08:00:32;;;;;;;;;0.75;0.25;;;;;24.32;58.47;100060.28;5070836;28;45515;-70
2021/08/07 08:02:58;;;;;;;;;2.00;2.00;;;;;24.05;58.41;100061.50;5069519;28;46406;-69
2021/08/07 08:05:24;;;;;;;;;7.25;7.00;;;;;23.88;58.42;100056.16;5067490;27;53341;-69
2021/08/07 08:07:50;;;;;;;;;2.50;2.25;;;;;23.59;58.06;100055.78;5070124;27;45469;-70
2021/08/07 08:10:15;;;;;;;;;5.50;2.50;;;;;23.51;58.76;100063.84;5069216;27;45445;-69
2021/08/07 08:12:41;;;;;;;;;1.00;1.00;;;;;23.52;58.90;100060.97;5080272;27;46094;-69
2021/08/07 08:15:07;;;;;;;;;1.50;1.50;;;;;24.09;59.72;100063.69;5072969;27;45520;-70
2021/08/07 08:17:33;;;;;;;;;1.00;1.00;;;;;24.53;58.25;100052.53;5071606;27;45717;-70
2021/08/07 08:19:59;;;;;;;;;2.00;0.00;;;;;24.72;55.59;100049.47;5074098;27;45665;-69
2021/08/07 08:22:24;;;;;;;;;1.25;1.00;;;;;24.84;56.62;100049.06;5069853;27;47820;-69
2021/08/07 08:24:49;;;;;;;;;2.50;1.00;;;;;24.99;56.56;100039.25;5076270;27;45806;-69
2021/08/07 08:27:19;;;;;;;;;0.25;0.25;;;;;25.33;56.28;100033.56;5075665;27;54972;-70
2021/08/07 08:29:45;;;;;;;;;2.00;1.25;;;;;25.70;54.37;100021.16;5075147;27;45647;-71
2021/08/07 08:32:12;;;;;;;;;1.50;0.00;;;;;26.25;54.29;100030.75;5067978;27;45555;-69
2021/08/07 08:34:37;;;;;;;;;2.00;1.00;;;;;26.91;53.09;100017.38;5085499;27;45689;-69
2021/08/07 08:37:02;;;;;;;;;4.50;0.25;;;;;27.75;52.19;100023.91;5087247;27;45476;-70
2021/08/07 08:39:28;;;;;;;;;3.00;0.25;;;;;29.10;49.72;100014.53;5078936;27;45586;-69
2021/08/07 08:41:54;;;;;;;;;1.50;1.50;;;;;29.08;47.58;100016.63;5072809;27;45460;-70
2021/08/07 08:44:20;;;;;;;;;1.00;1.00;;;;;28.43;48.54;100016.09;5074201;27;45541;-70
2021/08/07 08:46:45;;;;;;;;;1.75;0.75;;;;;27.47;49.62;100015.72;5070337;27;45578;-70
2021/08/07 08:49:15;;;;;;;;;2.50;1.25;;;;;26.45;49.21;100006.84;5070965;28;45557;-70
2021/08/07 08:51:43;;;;;;;;;2.25;0.00;;;;;25.58;50.02;100006.44;5073589;27;45468;-70
2021/08/07 08:54:08;;;;;;;;;1.75;1.00;;;;;24.79;51.79;100006.59;5072513;27;45655;-69
2021/08/07 08:56:35;;;;;;;;;3.00;1.50;;;;;24.34;52.84;100012.63;5071228;28;45794;-69
2021/08/07 08:59:02;;;;;;;;;2.00;0.50;;;;;23.83;54.29;100002.16;5073346;28;45290;-69
2021/08/07 09:01:28;;;;;;;;;3.00;0.75;;;;;24.19;55.46;100002.59;5071064;28;45748;-70
2021/08/07 09:03:53;;;;;;;;;1.00;1.00;;;;;25.01;54.14;99983.50;5073438;27;45565;-70
2021/08/07 09:06:18;;;;;;;;;2.00;2.00;;;;;25.02;53.24;99987.84;5071304;27;45319;-70
2021/08/07 09:09:04;;;;;;;;;1.50;1.00;;;;;24.62;53.46;99983.50;5071117;28;45498;-70
2021/08/07 09:11:31;;;;;;;;;4.00;0.25;;;;;24.26;54.04;99978.56;5071820;27;46574;-70
2021/08/07 09:14:21;;;;;;;;;0.75;0.25;;;;;23.78;54.82;99977.69;5072711;27;45377;-70
2021/08/07 09:16:59;;;;;;;;;3.50;2.00;;;;;23.27;55.91;99989.56;5058131;28;45394;-71
2021/08/07 09:19:25;;;;;;;;;0.00;0.00;;;;;22.84;56.60;99988.78;5072472;27;45772;-69
2021/08/07 09:22:11;;;;;;;;;1.00;1.00;;;;;22.50;58.92;99996.84;5073681;27;46885;-69
2021/08/07 09:25:16;;;;;;;;;1.50;1.50;;;;;22.12;61.19;99997.16;5073669;28;45556;-69
2021/08/07 09:27:43;;;;;;;;;0.75;0.75;;;;;21.80;62.10;99988.88;5072232;28;45419;-70
2021/08/07 09:30:18;;;;;;;;;3.00;1.75;;;;;21.62;62.82;99987.09;5071814;27;45497;-71
2021/08/07 09:32:53;;;;;;;;;1.75;1.00;;;;;21.60;63.12;99983.72;5071786;28;46438;-71
2021/08/07 09:35:23;;;;;;;;;2.00;1.00;;;;;21.61;63.40;99981.88;5071612;27;46019;-71
2021/08/07 09:38:18;;;;;;;;;1.50;1.50;;;;;21.73;63.78;99971.78;5074166;27;45341;-71
2021/08/07 09:40:57;;;;;;;;;2.00;2.00;;;;;21.82;64.24;99976.19;5058851;28;45724;-71
2021/08/07 09:43:46;;;;;;;;;2.00;2.00;;;;;21.80;64.03;99986.22;5076431;27;45311;-71
2021/08/07 09:46:15;;;;;;;;;2.25;1.00;;;;;21.77;64.11;99987.38;5073629;28;45852;-71
2021/08/07 09:48:48;;;;;;;;;2.75;1.75;;;;;21.85;64.07;99979.38;5077584;27;45389;-71
2021/08/07 09:51:19;;;;;;;;;2.00;1.00;;;;;21.96;64.39;99988.16;5073991;27;45872;-71
2021/08/07 09:54:08;;;;;;;;;3.00;2.00;;;;;22.03;64.30;99987.38;5075355;27;46331;-72
2021/08/07 09:56:54;;;;;;;;;1.00;1.00;;;;;22.16;63.92;99986.97;5075714;27;45727;-72
2021/08/07 09:59:23;;;;;;;;;1.00;1.00;;;;;22.43;63.53;99985.94;5075238;27;45400;-71
2021/08/07 10:01:50;;;;;;;;;3.50;1.50;;;;;23.00;62.43;99986.16;5076878;27;45392;-71
2021/08/07 10:04:16;;;;;;;;;2.00;2.00;;;;;23.27;61.45;99995.75;5074019;28;46061;-72
2021/08/07 10:06:44;;;;;;;;;1.50;1.00;;;;;23.42;61.67;99983.34;5075356;28;45695;-71
2021/08/07 10:09:10;;;;;;;;;1.75;1.75;;;;;23.62;60.83;99975.00;5076091;28;45432;-71
2021/08/07 10:11:36;;;;;;;;;0.25;0.25;;;;;23.54;59.70;99981.19;5075392;27;45438;-71
2021/08/07 10:14:03;;;;;;;;;0.25;0.25;;;;;23.30;59.85;99981.19;5078018;27;45592;-70
2021/08/07 10:16:30;;;;;;;;;0.00;0.00;;;;;22.89;59.67;99981.13;5082060;27;45546;-69
2021/08/07 10:18:56;;;;;;;;;1.00;1.00;;;;;22.56;60.69;99981.00;5092961;27;45503;-70
2021/08/07 10:21:21;;;;;;;;;2.00;1.25;;;;;22.44;60.96;99982.25;5075910;27;45638;-71
2021/08/07 10:23:48;;;;;;;;;2.75;1.00;;;;;22.28;62.18;99976.81;5074993;27;46300;-70
2021/08/07 10:26:19;;;;;;;;;1.25;1.25;;;;;22.03;62.51;99981.16;5072416;28;45473;-70
2021/08/07 10:28:53;;;;;;;;;3.75;2.00;;;;;21.84;63.29;99975.03;5076501;27;45397;-69
2021/08/07 10:31:24;;;;;;;;;1.00;1.00;;;;;21.63;63.37;99967.38;5074744;27;45433;-69
2021/08/07 10:33:56;;;;;;;;;1.00;1.00;;;;;21.50;63.67;99974.09;5076824;27;46639;-72
2021/08/07 10:36:23;;;;;;;;;1.00;1.00;;;;;21.37;65.11;99961.16;5074797;27;46335;-70
2021/08/07 10:38:51;;;;;;;;;3.00;1.00;;;;;21.46;65.95;99964.75;5073837;27;45532;-70
2021/08/07 10:41:17;;;;;;;;;4.00;3.00;;;;;21.79;66.88;99965.81;5074734;27;45504;-71
2021/08/07 10:43:43;;;;;;;;;1.25;1.00;;;;;22.39;65.02;99947.97;5074931;28;46731;-70
2021/08/07 10:46:10;;;;;;;;;0.75;0.75;;;;;23.02;65.11;99935.94;5074185;28;45466;-72
2021/08/07 10:48:40;;;;;;;;;2.00;1.25;;;;;23.46;62.87;99930.25;5074069;27;45492;-70
2021/08/07 10:51:28;;;;;;;;;1.00;1.00;;;;;23.60;62.90;99940.28;5071560;28;45461;-71
2021/08/07 10:54:26;;;;;;;;;2.25;1.00;;;;;23.66;63.26;99947.69;5073560;28;46335;-71
2021/08/07 10:56:54;;;;;;;;;2.75;1.00;;;;;23.59;62.51;99949.31;5073758;27;45584;-71
2021/08/07 10:59:26;;;;;;;;;3.25;2.00;;;;;23.63;62.41;99948.00;5074855;27;45389;-71
2021/08/07 11:01:54;;;;;;;;;4.00;2.00;;;;;24.03;62.66;99934.72;5074170;27;45453;-70
2021/08/07 11:04:26;;;;;;;;;1.50;1.00;;;;;24.22;61.14;99934.28;5076742;27;46872;-70
2021/08/07 11:06:58;;;;;;;;;2.00;1.50;;;;;24.32;61.40;99942.97;5075015;28;45298;-71
2021/08/07 11:09:40;;;;;;;;;2.00;2.00;;;;;24.18;61.42;99939.19;5073647;28;45524;-70
2021/08/07 11:12:06;;;;;;;;;1.00;1.00;;;;;23.96;60.53;99937.22;5070690;28;45335;-70
2021/08/07 11:14:34;;;;;;;;;1.00;1.00;;;;;23.72;60.23;99951.53;5073459;27;45432;-69
2021/08/07 11:17:05;;;;;;;;;0.50;0.50;;;;;23.34;60.34;99929.75;5074415;27;45451;-69
2021/08/07 11:20:00;;;;;;;;;3.50;1.00;;;;;22.89;60.87;99933.72;5068439;27;45507;-70
2021/08/07 11:22:31;;;;;;;;;2.25;2.00;;;;;22.63;61.68;99939.16;5072667;27;45687;-70
2021/08/07 11:25:05;;;;;;;;;1.75;1.75;;;;;22.60;62.23;99923.44;5073802;27;45539;-70
2021/08/07 11:30:29;;;;;;;;;3.25;2.25;;;;;23.66;61.84;99925.41;5074830;27;45563;-69
2021/08/07 11:32:57;;;;;;;;;1.00;0.00;;;;;24.00;60.47;99910.88;5078961;27;45880;-69